Time;durP1;ratioP1;P1;durP2;ratioP2;P2;SDS_P1;SDS_P2;PMS_P1;PMS_P2;Temp;Humidity;BMP_temperature;BMP_pressure;BME280_temperature;BME280_humidity;BME280_pressure;Samples;Min_cycle;Max_cycle;Signal;HPM_P1;HPM_P2
2022/04/05 00:06:45;;;;;;;13.20;6.65;;;4.90;99.90;;;;;;20741175;28;20448;-76
2022/04/05 00:16:46;;;;;;;12.65;7.47;;;4.70;99.90;;;;;;20748759;28;20555;-75
2022/04/05 00:26:47;;;;;;;;;;;4.60;99.90;;;;;;20738890;28;20029;-75
2022/04/05 00:36:47;;;;;;;12.60;6.78;;;4.40;99.90;;;;;;20736714;28;19916;-74
2022/04/05 00:46:51;;;;;;;12.57;7.00;;;4.30;99.90;;;;;;20755088;28;20030;-75
2022/04/05 00:56:55;;;;;;;11.80;6.80;;;4.30;99.90;;;;;;20752690;28;20030;-75
2022/04/05 01:06:58;;;;;;;12.80;6.55;;;4.30;99.90;;;;;;20751857;28;20400;-76
2022/04/05 01:16:59;;;;;;;13.18;7.00;;;4.40;99.90;;;;;;20751396;28;20033;-74
2022/04/05 01:27:02;;;;;;;;;;;4.50;99.90;;;;;;20750128;28;20029;-75
2022/04/05 01:37:05;;;;;;;15.27;7.07;;;4.40;99.90;;;;;;20750505;28;19910;-75
2022/04/05 01:47:17;;;;;;;13.00;7.22;;;4.40;99.90;;;;;;20749873;28;20381;-76
2022/04/05 01:57:17;;;;;;;14.90;7.80;;;4.20;99.90;;;;;;20733027;28;20045;-75
2022/04/05 02:07:18;;;;;;;;;;;4.10;99.90;;;;;;20747704;28;20037;-76
2022/04/05 02:17:20;;;;;;;13.75;8.77;;;4.00;99.90;;;;;;20729061;28;19960;-74
2022/04/05 02:27:22;;;;;;;13.32;7.55;;;3.90;99.90;;;;;;20729180;28;20117;-75
2022/04/05 02:37:24;;;;;;;14.80;8.07;;;3.90;99.90;;;;;;20727577;28;20492;-74
2022/04/05 02:47:29;;;;;;;13.70;7.82;;;4.00;99.90;;;;;;20726997;28;20042;-75
2022/04/05 02:57:30;;;;;;;16.00;7.90;;;4.00;99.90;;;;;;20726263;28;20048;-75
2022/04/05 03:07:35;;;;;;;18.58;7.22;;;4.10;99.90;;;;;;20725894;28;20033;-75
2022/04/05 03:17:45;;;;;;;13.00;6.88;;;4.20;99.90;;;;;;20726024;28;20029;-75
2022/04/05 03:27:49;;;;;;;14.60;8.10;;;4.20;99.90;;;;;;20788516;28;20034;-75
2022/04/05 03:37:53;;;;;;;14.93;7.00;;;4.30;99.90;;;;;;20794993;28;20087;-75
2022/04/05 03:47:53;;;;;;;;;;;4.40;99.90;;;;;;20819171;28;20116;-77
2022/04/05 03:57:54;;;;;;;10.48;6.15;;;4.50;99.90;;;;;;20880486;22;19921;-74
2022/04/05 04:07:57;;;;;;;13.05;7.32;;;4.50;99.90;;;;;;20911111;28;21090;-74
2022/04/05 04:18:00;;;;;;;11.57;7.10;;;4.60;99.90;;;;;;20896577;28;20052;-73
2022/04/05 04:28:01;;;;;;;;;;;4.50;99.90;;;;;;20900946;28;20032;-74
2022/04/05 04:38:03;;;;;;;14.43;7.30;;;4.20;99.90;;;;;;20921284;28;19912;-74
2022/04/05 04:48:04;;;;;;;14.68;7.68;;;4.10;99.90;;;;;;20917634;28;20505;-73
2022/04/05 04:58:05;;;;;;;16.05;8.63;;;3.90;99.90;;;;;;20916844;28;20091;-74
2022/04/05 05:08:06;;;;;;;18.65;8.50;;;3.90;99.90;;;;;;20915386;28;20033;-74
2022/04/05 05:18:07;;;;;;;14.55;8.68;;;3.80;99.90;;;;;;20897535;28;20514;-74
2022/04/05 05:28:07;;;;;;;;;;;3.80;99.90;;;;;;20914852;28;20075;-74
2022/04/05 05:38:08;;;;;;;17.57;8.03;;;3.80;99.90;;;;;;20913780;28;20286;-73
2022/04/05 05:48:10;;;;;;;18.55;8.52;;;3.70;99.90;;;;;;20895422;28;20797;-73
2022/04/05 05:58:11;;;;;;;;;;;3.90;99.90;;;;;;20920626;28;20055;-73
2022/04/05 06:08:17;;;;;;;13.95;8.15;;;3.90;99.90;;;;;;20935137;28;19943;-74
2022/04/05 06:18:17;;;;;;;21.45;8.65;;;3.90;99.90;;;;;;20982381;28;20028;-74
2022/04/05 06:28:18;;;;;;;;;;;4.00;99.90;;;;;;20993338;28;20525;-74
2022/04/05 06:38:20;;;;;;;16.90;8.55;;;4.10;99.90;;;;;;20991606;28;19916;-74
2022/04/05 06:48:23;;;;;;;11.88;7.78;;;4.10;99.90;;;;;;20980273;28;20036;-73
2022/04/05 06:58:24;;;;;;;14.30;7.22;;;4.30;99.90;;;;;;20990926;28;20068;-73
2022/04/05 07:08:25;;;;;;;;;;;4.40;99.90;;;;;;20991104;28;20025;-73
2022/04/05 07:18:26;;;;;;;14.50;7.00;;;4.60;99.90;;;;;;20990131;28;19934;-74
2022/04/05 07:28:27;;;;;;;10.35;5.93;;;4.90;99.90;;;;;;21000985;28;20333;-73
2022/04/05 07:38:27;;;;;;;9.83;6.07;;;5.10;99.90;;;;;;20988157;28;20441;-73
2022/04/05 07:48:29;;;;;;;18.98;9.48;;;5.30;99.90;;;;;;21005168;28;20325;-73
2022/04/05 07:58:30;;;;;;;15.13;6.75;;;5.30;99.90;;;;;;21004215;28;20048;-72
2022/04/05 08:08:31;;;;;;;12.35;7.85;;;5.50;99.90;;;;;;21003388;28;20375;-72
2022/04/05 08:18:32;;;;;;;;;;;5.90;99.90;;;;;;21003475;28;20046;-72
2022/04/05 08:28:33;;;;;;;9.50;4.85;;;6.10;99.90;;;;;;20984233;28;20007;-73
2022/04/05 08:38:35;;;;;;;7.97;4.83;;;6.30;99.90;;;;;;21001319;28;20021;-73
2022/04/05 08:48:37;;;;;;;9.18;4.88;;;6.40;99.90;;;;;;21000386;28;20501;-73
2022/04/05 08:58:38;;;;;;;7.28;4.78;;;6.70;99.90;;;;;;21000203;28;20056;-73
2022/04/05 09:08:39;;;;;;;8.45;5.20;;;6.80;99.90;;;;;;20998971;28;20440;-73
2022/04/05 09:18:44;;;;;;;9.17;4.97;;;7.00;99.90;;;;;;20998386;28;20068;-73
2022/04/05 09:28:49;;;;;;;14.05;6.43;;;7.10;99.90;;;;;;20997023;28;20032;-73
2022/04/05 09:38:50;;;;;;;10.88;6.00;;;7.30;99.90;;;;;;20996847;28;20039;-73
2022/04/05 09:49:07;;;;;;;12.23;6.03;;;7.40;99.90;;;;;;20995407;28;20108;-73
2022/04/05 09:59:22;;;;;;;20.73;10.43;;;7.70;99.90;;;;;;20940701;22;20045;-77
2022/04/05 10:09:25;;;;;;;42.78;16.58;;;7.70;99.90;;;;;;20803024;28;20033;-76
2022/04/05 10:19:26;;;;;;;12.25;4.68;;;7.70;99.90;;;;;;20747117;28;20026;-75
2022/04/05 10:29:27;;;;;;;13.98;6.60;;;7.90;99.90;;;;;;20746176;28;20443;-76
2022/04/05 10:39:28;;;;;;;7.38;4.53;;;7.90;99.90;;;;;;20746748;28;20030;-76
2022/04/05 10:49:42;;;;;;;12.80;5.90;;;8.20;99.90;;;;;;20745068;28;20105;-76
2022/04/05 10:59:49;;;;;;;9.65;4.65;;;8.30;99.90;;;;;;20733510;28;20045;-76
2022/04/05 11:09:54;;;;;;;9.93;5.03;;;8.60;99.90;;;;;;20744046;28;20045;-76
2022/04/05 11:19:58;;;;;;;12.40;4.82;;;8.90;99.90;;;;;;20743133;28;20038;-76
2022/04/05 11:30:26;;;;;;;42.80;15.07;;;9.00;99.90;;;;;;20743502;28;20037;-75
2022/04/05 11:40:30;;;;;;;11.27;6.03;;;9.30;99.90;;;;;;20709387;28;20037;-78
2022/04/05 11:50:37;;;;;;;14.48;6.47;;;9.20;99.90;;;;;;20742457;28;20048;-76
2022/04/05 12:00:51;;;;;;;5.90;3.58;;;9.40;99.90;;;;;;20741784;28;20037;-76
2022/04/05 12:10:54;;;;;;;5.53;3.28;;;9.60;99.90;;;;;;20728525;28;20038;-76
2022/04/05 12:20:58;;;;;;;69.15;30.33;;;10.00;99.90;;;;;;20756305;28;20038;-77
2022/04/05 12:31:09;;;;;;;631.13;284.55;;;10.80;99.90;;;;;;20757674;28;20038;-76
2022/04/05 12:41:17;;;;;;;12.87;6.13;;;10.90;99.90;;;;;;20737285;28;20421;-77
2022/04/05 12:51:31;;;;;;;8.10;3.80;;;11.20;99.90;;;;;;20736319;28;20034;-77
2022/04/05 13:01:32;;;;;;;39.33;15.00;;;13.40;99.90;;;;;;20719145;28;20038;-76
2022/04/05 13:11:33;;;;;;;549.47;223.97;;;12.70;99.90;;;;;;20752738;28;20495;-77
2022/04/05 13:21:44;;;;;;;8.80;4.57;;;12.70;99.90;;;;;;20750451;28;20033;-75
2022/04/05 13:31:51;;;;;;;47.30;23.13;;;12.00;99.90;;;;;;20750179;28;20041;-77
2022/04/05 13:41:52;;;;;;;164.02;78.95;;;12.20;99.90;;;;;;20750275;28;20053;-75
2022/04/05 13:51:54;;;;;;;11.07;5.53;;;12.60;99.90;;;;;;20748962;28;20034;-75
2022/04/05 14:01:55;;;;;;;10.32;5.72;;;12.40;99.90;;;;;;20801167;28;20107;-74
2022/04/05 14:11:55;;;;;;;11.77;6.13;;;12.80;99.90;;;;;;20829547;28;20033;-77
2022/04/05 14:21:57;;;;;;;7.00;3.53;;;12.70;99.90;;;;;;20829003;28;20167;-76
2022/04/05 14:32:00;;;;;;;;;;;12.60;99.90;;;;;;20829444;28;20025;-76
2022/04/05 14:42:01;;;;;;;75.63;26.27;;;12.60;99.90;;;;;;20834599;28;19909;-76
2022/04/05 14:52:02;;;;;;;5.57;2.83;;;12.30;99.90;;;;;;20826881;28;20037;-76
2022/04/05 15:02:03;;;;;;;4.60;3.20;;;12.70;99.90;;;;;;20805062;28;20646;-77
2022/04/05 15:12:06;;;;;;;20.50;8.17;;;12.50;99.90;;;;;;20787886;28;20044;-76
2022/04/05 15:22:07;;;;;;;17.92;8.13;;;12.60;99.90;;;;;;20805754;28;20041;-76
2022/04/05 15:32:11;;;;;;;47.77;19.33;;;12.60;99.90;;;;;;20805188;28;20029;-77
2022/04/05 15:42:13;;;;;;;12.57;4.60;;;12.60;99.90;;;;;;20786668;28;20068;-77
2022/04/05 15:52:14;;;;;;;4.32;2.05;;;12.50;99.90;;;;;;20819697;28;20047;-74
2022/04/05 16:02:15;;;;;;;4.53;2.28;;;12.20;99.90;;;;;;20860248;22;20056;-76
2022/04/05 16:12:19;;;;;;;2.40;1.70;;;11.90;99.90;;;;;;20948825;28;20124;-76
2022/04/05 16:22:20;;;;;;;6.80;2.58;;;12.10;99.90;;;;;;20961564;28;20039;-75
2022/04/05 16:32:21;;;;;;;2.47;1.70;;;12.20;99.90;;;;;;20955107;28;20041;-76
2022/04/05 16:42:22;;;;;;;3.77;2.10;;;12.10;99.90;;;;;;20913204;28;20043;-76
2022/04/05 16:52:27;;;;;;;9.00;4.63;;;12.10;99.90;;;;;;20958551;28;20119;-75
2022/04/05 17:02:28;;;;;;;47.63;20.58;;;11.60;99.90;;;;;;20912709;28;20036;-75
2022/04/05 17:12:30;;;;;;;5.33;2.30;;;11.40;99.90;;;;;;20912055;28;20036;-75
2022/04/05 17:22:32;;;;;;;3.43;2.07;;;11.40;99.90;;;;;;20903549;28;20040;-75
2022/04/05 17:32:33;;;;;;;5.38;2.40;;;11.40;99.90;;;;;;20913568;28;20789;-74
2022/04/05 17:42:35;;;;;;;9.40;4.20;;;11.30;99.90;;;;;;20913835;28;20074;-75
2022/04/05 17:52:35;;;;;;;24.37;8.70;;;11.10;99.90;;;;;;20894809;28;20127;-75
2022/04/05 18:02:36;;;;;;;12.07;5.77;;;10.80;99.90;;;;;;20893842;28;20137;-74
2022/04/05 18:12:43;;;;;;;7.40;2.60;;;10.60;99.90;;;;;;20932572;28;20116;-75
2022/04/05 18:22:44;;;;;;;4.38;3.20;;;10.30;99.90;;;;;;20982233;28;20032;-75
2022/04/05 18:32:46;;;;;;;8.20;2.72;;;9.90;99.90;;;;;;20992064;28;20430;-76
2022/04/05 18:42:47;;;;;;;5.13;3.28;;;9.40;99.90;;;;;;20991059;28;20036;-74
2022/04/05 18:52:48;;;;;;;;;;;9.10;99.90;;;;;;20991118;28;20036;-75
2022/04/05 19:02:49;;;;;;;27.20;12.63;;;8.80;99.90;;;;;;20972078;28;20285;-75
2022/04/05 19:12:51;;;;;;;29.70;13.83;;;8.80;99.90;;;;;;20989471;28;20478;-75
2022/04/05 19:22:52;;;;;;;14.90;6.80;;;9.20;99.90;;;;;;20976652;28;20491;-75
2022/04/05 19:32:53;;;;;;;8.63;4.93;;;9.10;99.90;;;;;;20980208;28;20036;-74
2022/04/05 19:42:54;;;;;;;8.37;5.20;;;9.00;99.90;;;;;;20988693;28;20440;-74
2022/04/05 19:52:54;;;;;;;21.47;10.70;;;9.00;99.90;;;;;;20988271;28;20463;-75
2022/04/05 20:02:55;;;;;;;9.70;5.33;;;9.00;99.90;;;;;;20987932;28;20028;-75
2022/04/05 20:12:56;;;;;;;11.60;5.00;;;9.10;99.90;;;;;;20987502;28;20041;-75
2022/04/05 20:22:57;;;;;;;13.87;6.80;;;9.20;99.90;;;;;;20969209;28;20029;-75
2022/04/05 20:32:58;;;;;;;23.05;10.10;;;9.20;99.90;;;;;;20992969;28;20043;-74
2022/04/05 20:42:59;;;;;;;32.67;12.27;;;9.20;99.90;;;;;;21000196;28;20490;-74
2022/04/05 20:53:00;;;;;;;17.50;8.93;;;9.20;99.90;;;;;;20999974;28;20035;-74
2022/04/05 21:03:02;;;;;;;10.70;4.93;;;9.20;99.90;;;;;;20999719;28;20440;-75
2022/04/05 21:13:04;;;;;;;11.73;5.40;;;9.10;99.90;;;;;;20952323;28;20439;-75
2022/04/05 21:23:05;;;;;;;13.23;6.57;;;8.90;99.90;;;;;;20935164;28;20592;-75
2022/04/05 21:33:06;;;;;;;12.07;6.20;;;8.80;99.90;;;;;;20919280;28;20024;-74
2022/04/05 21:43:08;;;;;;;10.32;4.50;;;8.50;99.90;;;;;;20903195;28;20107;-74
2022/04/05 21:53:09;;;;;;;7.95;4.97;;;8.20;99.90;;;;;;20933494;28;20090;-74
2022/04/05 22:03:11;;;;;;;;;;;8.10;99.90;;;;;;20954115;22;20602;-74
2022/04/05 22:13:12;;;;;;;9.13;5.73;;;7.90;99.90;;;;;;20891610;28;20606;-75
2022/04/05 22:23:13;;;;;;;12.07;6.73;;;7.80;99.90;;;;;;20895260;28;20025;-74
2022/04/05 22:33:15;;;;;;;11.20;6.13;;;7.80;99.90;;;;;;20908876;28;20499;-74
2022/04/05 22:43:16;;;;;;;11.85;6.03;;;8.00;99.90;;;;;;20908947;28;20041;-74
2022/04/05 22:53:18;;;;;;;7.43;5.10;;;8.10;99.90;;;;;;20908110;28;20080;-74
2022/04/05 23:03:19;;;;;;;14.65;7.60;;;8.10;99.90;;;;;;20907586;28;20045;-74
2022/04/05 23:13:21;;;;;;;10.80;5.53;;;8.30;99.90;;;;;;20906981;28;20033;-74
2022/04/05 23:23:22;;;;;;;23.15;8.15;;;8.50;99.90;;;;;;20889393;28;20495;-75
2022/04/05 23:33:22;;;;;;;9.97;5.13;;;8.50;99.90;;;;;;20906723;28;20048;-74
2022/04/05 23:43:23;;;;;;;10.87;5.57;;;8.50;99.90;;;;;;20889002;28;20029;-74
2022/04/05 23:53:28;;;;;;;8.23;4.83;;;8.60;99.90;;;;;;20906382;28;20537;-75
